Decoded Metar for GMMZ (OUARZAZATE in MOROCCO) (IATA:OZZ) | Meteo·Mobile Aviation Weather
aviador You're here:

GMMZ Decoded Metar

OUARZAZATE in MOROCCO
Report Time2018-08-21 22:00:00
UTC Time2018-08-21 22:18:18
Flight Rules vfr VFR
Wind160° at 02 kt
W.Decomp.*RWY 12: 1.4 kt HW 1.4 kt RCW
W.Rank160° ranks 9
Current wind is below 160° avg. (7.0)
Visibility9999 m
Phenomena:N/A
Clouds:N/A
Expected CloudBase > 9,200 ft AGL from Temp-Dew spread
CeilingNone
Temp29°C (ISA +21)
Dew Point06°C (23% RH)
Heat Index27.6°C
AAT27.3°C
QNH1017 hPa
Density Alt6,175 ft
Elevation3,740 ft
Report Wrong Elevation
Raw Report
GMMZ 212200Z 16002KT CAVOK 29/06 Q1017 NOSIG=

Extra information for GMMZ:More info

Metar Taf Metar & Taf Last 4 Metars F.Rules Stats Wind Profile Meteogram Temp Stats Airport Information Weather charts Add Link Nearby VenuesMetar ALERT Operation Metar Decoded Social comments